createdAt,value
2019-04-11T00:01:14.976Z,4.27
2019-04-11T00:03:41.993Z,3.80
2019-04-11T00:06:10.169Z,3.87
2019-04-11T00:08:37.457Z,4.00
2019-04-11T00:11:05.961Z,3.90
2019-04-11T00:13:35.982Z,4.00
2019-04-11T00:16:02.742Z,3.77
2019-04-11T00:18:30.370Z,4.20
2019-04-11T00:20:58.269Z,3.90
2019-04-11T00:23:25.988Z,4.20
2019-04-11T00:25:53.219Z,3.83
2019-04-11T00:28:21.503Z,3.93
2019-04-11T00:30:48.675Z,4.00
2019-04-11T00:33:16.115Z,3.60
2019-04-11T00:35:44.409Z,4.33
2019-04-11T00:38:11.765Z,3.90
2019-04-11T00:40:39.584Z,4.00
2019-04-11T00:43:07.338Z,4.47
2019-04-11T00:45:34.601Z,4.13
2019-04-11T00:48:01.733Z,3.60
2019-04-11T00:50:30.042Z,4.07
2019-04-11T00:52:57.995Z,4.23
2019-04-11T00:55:25.008Z,3.97
2019-04-11T00:57:52.943Z,3.73
2019-04-11T01:00:20.908Z,4.10
2019-04-11T01:02:48.088Z,4.33
2019-04-11T01:05:15.210Z,3.43
2019-04-11T01:07:42.919Z,4.07
2019-04-11T01:10:10.227Z,4.03
2019-04-11T01:12:37.555Z,3.90
2019-04-11T01:15:08.213Z,4.30
2019-04-11T01:17:35.481Z,3.93
2019-04-11T01:20:04.960Z,4.63
2019-04-11T01:22:32.000Z,4.17
2019-04-11T01:24:59.910Z,3.97
2019-04-11T01:27:27.073Z,4.07
2019-04-11T01:29:54.090Z,3.97
2019-04-11T01:32:22.288Z,4.20
2019-04-11T01:34:49.383Z,3.70
2019-04-11T01:37:17.591Z,3.97
2019-04-11T01:39:51.981Z,4.27
2019-04-11T01:42:19.499Z,4.00
2019-04-11T01:44:49.238Z,4.40
2019-04-11T01:47:24.013Z,4.33
2019-04-11T01:49:51.133Z,4.23
2019-04-11T01:52:18.256Z,4.47
2019-04-11T01:54:46.013Z,4.23
2019-04-11T01:57:13.848Z,4.30
2019-04-11T01:59:41.776Z,4.13
2019-04-11T02:02:27.129Z,3.97
2019-04-11T02:04:59.113Z,4.83
2019-04-11T02:07:26.845Z,4.53
2019-04-11T02:09:54.751Z,4.50
2019-04-11T02:12:22.472Z,5.67
2019-04-11T02:14:50.158Z,4.63
2019-04-11T02:17:17.448Z,4.50
2019-04-11T02:19:44.777Z,4.20
2019-04-11T02:22:38.302Z,4.60
2019-04-11T02:25:14.987Z,4.50
2019-04-11T02:27:42.359Z,3.87
2019-04-11T02:30:11.200Z,4.43
2019-04-11T02:32:40.443Z,4.70
2019-04-11T02:35:08.729Z,4.13
2019-04-11T02:37:37.771Z,4.50
2019-04-11T02:40:07.604Z,4.50
2019-04-11T02:42:35.200Z,4.40
2019-04-11T02:45:16.760Z,3.97
2019-04-11T02:47:35.061Z,4.20
2019-04-11T02:50:03.481Z,4.67
2019-04-11T02:52:31.290Z,4.80
2019-04-11T02:54:58.896Z,4.90
2019-04-11T02:57:26.509Z,4.60
2019-04-11T02:59:54.327Z,4.27
2019-04-11T03:02:26.205Z,4.47
2019-04-11T03:04:55.355Z,4.70
2019-04-11T03:07:22.781Z,4.67
2019-04-11T03:09:53.382Z,4.57
2019-04-11T03:12:21.513Z,4.47
2019-04-11T03:15:13.023Z,4.50
2019-04-11T03:17:23.111Z,5.00
2019-04-11T03:20:01.000Z,4.70
2019-04-11T03:22:18.242Z,4.40
2019-04-11T03:24:46.942Z,4.47
2019-04-11T03:27:15.477Z,4.77
2019-04-11T03:29:43.191Z,4.87
2019-04-11T03:32:48.759Z,4.50
2019-04-11T03:37:50.081Z,4.30
2019-04-11T03:40:00.541Z,5.03
2019-04-11T03:42:22.141Z,5.07
2019-04-11T03:44:42.762Z,5.00
2019-04-11T03:47:20.584Z,4.73
2019-04-11T03:49:44.746Z,4.53
2019-04-11T03:52:06.334Z,5.10
2019-04-11T03:54:36.264Z,4.07
2019-04-11T03:57:05.427Z,5.20
2019-04-11T03:59:34.280Z,4.33
2019-04-11T04:02:03.315Z,5.60
2019-04-11T04:04:32.652Z,4.80
2019-04-11T04:07:02.586Z,4.93
2019-04-11T04:09:29.803Z,4.77
2019-04-11T04:11:59.013Z,4.83
2019-04-11T04:14:34.657Z,4.83
2019-04-11T04:17:23.483Z,5.00
2019-04-11T04:20:08.763Z,5.23
2019-04-11T04:22:42.153Z,5.70
2019-04-11T04:25:12.426Z,5.53
2019-04-11T04:27:41.077Z,5.40
2019-04-11T04:30:10.703Z,5.50
2019-04-11T04:32:38.680Z,5.40
2019-04-11T04:35:09.127Z,5.53
2019-04-11T04:37:34.907Z,5.70
2019-04-11T04:40:21.723Z,5.10
2019-04-11T04:42:39.310Z,4.90
2019-04-11T04:45:02.749Z,5.13
2019-04-11T04:47:39.645Z,5.13
2019-04-11T04:50:01.261Z,5.27
2019-04-11T04:52:29.618Z,5.20
2019-04-11T04:54:59.502Z,5.10
2019-04-11T04:57:26.925Z,5.23
2019-04-11T04:59:55.769Z,5.43
2019-04-11T05:02:26.094Z,6.13
2019-04-11T05:04:54.286Z,6.23
2019-04-11T05:07:21.469Z,5.00
2019-04-11T05:09:50.171Z,6.50
2019-04-11T05:12:18.425Z,5.93
2019-04-11T05:14:45.643Z,5.37
2019-04-11T05:17:12.945Z,5.87
2019-04-11T05:19:40.479Z,6.10
2019-04-11T05:22:08.493Z,5.67
2019-04-11T05:24:35.506Z,6.30
2019-04-11T05:27:02.514Z,7.20
2019-04-11T05:29:30.517Z,6.43
2019-04-11T05:31:57.389Z,6.23
2019-04-11T05:34:24.277Z,6.13
2019-04-11T05:36:51.140Z,5.90
2019-04-11T05:39:18.510Z,5.87
2019-04-11T05:41:47.125Z,5.73
2019-04-11T05:44:14.997Z,5.83
2019-04-11T05:46:49.832Z,6.23
2019-04-11T05:49:26.313Z,6.40
2019-04-11T05:51:58.780Z,7.17
2019-04-11T05:54:28.207Z,6.63
2019-04-11T05:56:59.992Z,6.63
2019-04-11T05:59:28.555Z,7.10
2019-04-11T06:02:06.266Z,6.60
2019-04-11T06:04:36.369Z,6.20
2019-04-11T06:07:23.233Z,6.30
2019-04-11T06:09:52.877Z,7.00
2019-04-11T06:12:28.137Z,6.23
2019-04-11T06:15:14.226Z,5.87
2019-04-11T06:17:42.720Z,6.90
2019-04-11T06:20:29.186Z,5.97
2019-04-11T06:23:09.999Z,5.80
2019-04-11T06:25:47.222Z,6.20
2019-04-11T06:28:22.173Z,6.33
2019-04-11T06:31:24.844Z,6.00
2019-04-11T06:33:58.769Z,6.33
2019-04-11T06:36:46.877Z,6.77
2019-04-11T06:39:33.892Z,6.47
2019-04-11T06:42:15.009Z,6.53
2019-04-11T06:44:52.239Z,6.60
2019-04-11T06:47:37.382Z,6.10
2019-04-11T06:50:19.446Z,6.90
2019-04-11T06:52:46.770Z,6.40
2019-04-11T06:55:32.959Z,6.47
2019-04-11T06:58:07.460Z,6.03
2019-04-11T07:00:36.962Z,6.27
2019-04-11T07:03:05.466Z,6.80
2019-04-11T07:05:35.129Z,6.67
2019-04-11T07:08:02.418Z,6.63
2019-04-11T07:10:49.133Z,6.27
2019-04-11T07:13:39.259Z,6.37
2019-04-11T07:16:06.297Z,7.07
2019-04-11T07:18:46.782Z,6.97
2019-04-11T07:21:14.878Z,6.47
2019-04-11T07:24:03.126Z,6.57
2019-04-11T07:26:38.241Z,7.00
2019-04-11T07:29:25.800Z,6.90
2019-04-11T07:32:11.711Z,6.73
2019-04-11T07:34:57.621Z,6.80
2019-04-11T07:37:38.736Z,6.67
2019-04-11T07:40:29.105Z,6.43
2019-04-11T07:43:13.446Z,6.93
2019-04-11T07:45:58.675Z,7.07
2019-04-11T07:48:29.343Z,7.40
2019-04-11T07:50:57.615Z,7.40
2019-04-11T07:53:26.249Z,6.97
2019-04-11T07:55:55.331Z,7.50
2019-04-11T07:58:24.481Z,6.80
2019-04-11T08:01:27.091Z,7.47
2019-04-11T08:04:19.603Z,7.33
2019-04-11T08:07:13.162Z,7.90
2019-04-11T08:09:50.662Z,7.57
2019-04-11T08:12:21.326Z,7.50
2019-04-11T08:15:07.091Z,7.00
2019-04-11T08:17:41.636Z,7.80
2019-04-11T08:20:37.455Z,7.87
2019-04-11T08:23:07.562Z,7.80
2019-04-11T08:25:53.687Z,7.90
2019-04-11T08:28:21.461Z,7.23
2019-04-11T08:30:54.940Z,7.63
2019-04-11T08:33:22.862Z,7.47
2019-04-11T08:35:54.938Z,7.70
2019-04-11T08:38:24.703Z,7.60
2019-04-11T08:41:17.703Z,7.53
2019-04-11T08:43:45.597Z,7.60
2019-04-11T08:46:15.682Z,7.57
2019-04-11T08:48:46.009Z,8.13
2019-04-11T08:51:13.009Z,7.90
2019-04-11T08:54:09.143Z,7.67
2019-04-11T08:56:37.471Z,7.57
2019-04-11T08:59:44.037Z,7.93
2019-04-11T09:02:16.381Z,7.57
2019-04-11T09:05:12.243Z,8.27
2019-04-11T09:07:46.900Z,7.73
2019-04-11T09:10:42.582Z,8.13
2019-04-11T09:13:19.764Z,7.17
2019-04-11T09:16:18.565Z,7.87
2019-04-11T09:18:46.175Z,7.27
2019-04-11T09:21:38.881Z,7.80
2019-04-11T09:24:12.417Z,7.60
2019-04-11T09:26:59.009Z,7.30
2019-04-11T09:29:30.365Z,7.43
2019-04-11T09:32:18.151Z,7.87
2019-04-11T09:34:55.217Z,6.63
2019-04-11T09:37:40.170Z,7.30
2019-04-11T09:40:28.036Z,6.97
2019-04-11T09:43:13.533Z,6.40
2019-04-11T09:46:12.545Z,7.00
2019-04-11T09:49:04.400Z,6.30
2019-04-11T09:51:50.176Z,6.27
2019-04-11T09:54:36.537Z,5.90
2019-04-11T09:57:14.549Z,5.63
2019-04-11T10:00:01.848Z,6.13
2019-04-11T10:02:48.320Z,6.50
2019-04-11T10:05:18.191Z,6.43
2019-04-11T10:08:08.582Z,6.00
2019-04-11T10:10:57.781Z,6.10
2019-04-11T10:13:47.126Z,5.90
2019-04-11T10:16:40.130Z,5.43
2019-04-11T10:19:20.441Z,5.27
2019-04-11T10:21:52.382Z,5.03
2019-04-11T10:24:42.844Z,5.80
2019-04-11T10:27:24.733Z,5.40
2019-04-11T10:30:09.805Z,5.10
2019-04-11T10:32:41.412Z,5.40
2019-04-11T10:35:27.194Z,5.53
2019-04-11T10:37:54.242Z,6.40
2019-04-11T10:40:39.917Z,6.80
2019-04-11T10:43:07.769Z,6.07
2019-04-11T10:45:48.995Z,5.53
2019-04-11T10:48:17.888Z,5.63
2019-04-11T10:51:10.781Z,6.00
2019-04-11T10:53:39.463Z,6.60
2019-04-11T10:56:18.224Z,5.67
2019-04-11T10:58:53.475Z,6.30
2019-04-11T11:01:46.448Z,6.37
2019-04-11T11:04:15.906Z,6.50
2019-04-11T11:06:44.969Z,6.27
2019-04-11T11:09:30.216Z,7.33
2019-04-11T11:12:16.908Z,7.00
2019-04-11T11:15:19.831Z,5.87
2019-04-11T11:18:34.930Z,6.27
2019-04-11T11:20:51.093Z,6.43
2019-04-11T11:23:20.347Z,6.33
2019-04-11T11:26:02.792Z,6.67
2019-04-11T11:28:30.308Z,6.40
2019-04-11T11:31:08.298Z,6.97
2019-04-11T11:33:36.489Z,6.73
2019-04-11T11:36:21.708Z,6.83
2019-04-11T11:39:02.519Z,6.73
2019-04-11T11:41:49.676Z,6.90
2019-04-11T11:44:18.132Z,6.80
2019-04-11T11:47:02.213Z,6.10
2019-04-11T11:49:42.399Z,6.57
2019-04-11T11:52:19.347Z,6.60
2019-04-11T11:54:49.643Z,6.87
2019-04-11T11:57:22.456Z,6.60
2019-04-11T11:59:53.769Z,6.90
2019-04-11T12:02:27.109Z,6.87
2019-04-11T12:05:22.578Z,6.30
2019-04-11T12:08:12.261Z,6.43
2019-04-11T12:10:49.759Z,7.10
2019-04-11T12:13:43.278Z,6.27
2019-04-11T12:16:19.268Z,6.67
2019-04-11T12:19:00.452Z,6.40
2019-04-11T12:21:31.411Z,6.03
2019-04-11T12:24:22.924Z,6.30
2019-04-11T12:26:57.653Z,6.90
2019-04-11T12:29:46.384Z,7.30
2019-04-11T12:32:14.532Z,7.57
2019-04-11T12:34:49.327Z,7.37
2019-04-11T12:37:22.666Z,7.00
2019-04-11T12:40:09.625Z,6.70
2019-04-11T12:42:37.889Z,6.70
2019-04-11T12:45:37.202Z,7.27
2019-04-11T12:48:04.097Z,7.23
2019-04-11T12:50:49.390Z,7.10
2019-04-11T12:53:18.411Z,7.20
2019-04-11T12:56:03.904Z,7.07
2019-04-11T12:58:48.512Z,6.80
2019-04-11T13:01:50.222Z,7.17
2019-04-11T13:04:34.465Z,7.30
2019-04-11T13:07:33.350Z,7.20
2019-04-11T13:10:18.550Z,7.50
2019-04-11T13:13:05.361Z,7.63
2019-04-11T13:15:38.650Z,7.50
2019-04-11T13:18:16.633Z,8.37
2019-04-11T13:20:56.493Z,7.63
2019-04-11T13:23:45.925Z,7.33
2019-04-11T13:26:30.953Z,7.70
2019-04-11T13:29:07.610Z,8.13
2019-04-11T13:31:53.180Z,7.73
2019-04-11T13:34:20.338Z,7.40
2019-04-11T13:37:22.216Z,7.67
2019-04-11T13:39:56.470Z,7.73
2019-04-11T13:42:45.887Z,8.03
2019-04-11T13:45:13.349Z,7.33
2019-04-11T13:47:48.873Z,7.70
2019-04-11T13:50:17.153Z,7.63
2019-04-11T13:53:04.113Z,9.97
2019-04-11T13:55:33.589Z,7.47
2019-04-11T13:58:29.523Z,7.93
2019-04-11T14:00:59.332Z,7.70
2019-04-11T14:03:46.406Z,7.37
2019-04-11T14:06:27.942Z,7.17
2019-04-11T14:09:23.570Z,7.90
2019-04-11T14:11:52.480Z,7.83
2019-04-11T14:14:22.258Z,8.40
2019-04-11T14:16:59.548Z,8.20
2019-04-11T14:19:45.281Z,8.13
2019-04-11T14:22:13.756Z,8.83
2019-04-11T14:24:52.726Z,7.77
2019-04-11T14:27:23.941Z,9.10
2019-04-11T14:30:12.334Z,8.67
2019-04-11T14:32:43.174Z,8.97
2019-04-11T14:35:28.833Z,8.90
2019-04-11T14:38:06.538Z,8.30
2019-04-11T14:41:04.963Z,8.33
2019-04-11T14:43:34.858Z,8.10
2019-04-11T14:46:24.073Z,8.73
2019-04-11T14:48:53.229Z,7.77
2019-04-11T14:51:48.954Z,7.83
2019-04-11T14:54:18.569Z,7.53
2019-04-11T14:57:05.245Z,7.60
2019-04-11T14:59:39.776Z,8.40
2019-04-11T15:02:11.434Z,7.10
2019-04-11T15:04:46.769Z,7.57
2019-04-11T15:07:15.494Z,7.60
2019-04-11T15:09:55.211Z,7.93
2019-04-11T15:12:24.090Z,7.80
2019-04-11T15:15:13.581Z,7.20
2019-04-11T15:17:40.813Z,8.10
2019-04-11T15:20:14.949Z,7.83
2019-04-11T15:22:46.896Z,7.40
2019-04-11T15:25:21.539Z,7.00
2019-04-11T15:28:10.444Z,7.43
2019-04-11T15:30:38.447Z,8.23
2019-04-11T15:33:23.772Z,8.90
2019-04-11T15:35:51.095Z,8.33
2019-04-11T15:38:35.432Z,8.23
2019-04-11T15:41:02.914Z,7.97
2019-04-11T15:43:48.301Z,9.93
2019-04-11T15:46:23.301Z,8.03
2019-04-11T15:49:20.082Z,7.27
2019-04-11T15:51:47.520Z,7.40
2019-04-11T15:54:37.203Z,7.57
2019-04-11T15:57:23.589Z,8.03
2019-04-11T16:00:13.539Z,7.73
2019-04-11T16:02:57.108Z,7.83
2019-04-11T16:05:49.815Z,8.27
2019-04-11T16:08:54.611Z,8.20
2019-04-11T16:11:42.475Z,10.07
2019-04-11T16:14:20.768Z,8.33
2019-04-11T16:16:56.886Z,8.23
2019-04-11T16:19:36.131Z,8.57
2019-04-11T16:22:25.683Z,8.60
2019-04-11T16:24:57.923Z,8.67
2019-04-11T16:27:46.221Z,9.53
2019-04-11T16:30:14.500Z,8.47
2019-04-11T16:32:44.517Z,8.20
2019-04-11T16:35:26.078Z,8.27
2019-04-11T16:37:53.650Z,7.90
2019-04-11T16:40:43.145Z,7.77
2019-04-11T16:43:10.077Z,8.30
2019-04-11T16:46:02.474Z,7.87
2019-04-11T16:48:29.426Z,7.90
2019-04-11T16:50:56.310Z,8.57
2019-04-11T16:53:23.205Z,8.43
2019-04-11T16:55:50.133Z,8.97
2019-04-11T16:58:19.503Z,9.93
2019-04-11T17:00:46.213Z,8.37
2019-04-11T17:03:13.097Z,8.23
2019-04-11T17:05:43.380Z,9.00
2019-04-11T17:08:29.938Z,8.17
2019-04-11T17:11:06.368Z,8.67
2019-04-11T17:13:33.405Z,8.53
2019-04-11T17:16:01.033Z,8.60
2019-04-11T17:18:28.211Z,8.07
2019-04-11T17:20:55.225Z,7.63
2019-04-11T17:23:22.104Z,7.80
2019-04-11T17:25:52.974Z,7.90
2019-04-11T17:28:18.156Z,7.70
2019-04-11T17:30:46.206Z,8.30
2019-04-11T17:33:13.562Z,8.47
2019-04-11T17:35:40.982Z,8.20
2019-04-11T17:38:09.300Z,7.70
2019-04-11T17:40:39.402Z,8.13
2019-04-11T17:43:06.190Z,7.90
2019-04-11T17:45:33.456Z,7.93
2019-04-11T17:48:01.070Z,8.10
2019-04-11T17:50:28.327Z,7.47
2019-04-11T17:52:55.538Z,7.97
2019-04-11T17:55:24.120Z,7.97
2019-04-11T17:57:51.674Z,8.30
2019-04-11T18:00:29.711Z,8.03
2019-04-11T18:02:54.678Z,8.00
2019-04-11T18:05:22.015Z,7.77
2019-04-11T18:07:50.056Z,7.73
2019-04-11T18:10:17.483Z,7.70
2019-04-11T18:12:44.756Z,7.60
2019-04-11T18:15:12.012Z,7.10
2019-04-11T18:17:39.360Z,7.10
2019-04-11T18:20:07.511Z,6.63
2019-04-11T18:22:35.082Z,7.27
2019-04-11T18:25:02.363Z,6.67
2019-04-11T18:27:29.626Z,6.53
2019-04-11T18:29:56.859Z,6.83
2019-04-11T18:32:25.092Z,6.97
2019-04-11T18:34:52.328Z,7.13
2019-04-11T18:37:19.536Z,7.00
2019-04-11T18:39:46.786Z,6.70
2019-04-11T18:42:14.041Z,6.83
2019-04-11T18:44:41.294Z,7.17
2019-04-11T18:47:08.565Z,7.27
2019-04-11T18:49:35.844Z,7.43
2019-04-11T18:52:03.061Z,7.53
2019-04-11T18:54:30.284Z,8.00
2019-04-11T18:56:57.530Z,7.23
2019-04-11T18:59:24.778Z,8.37
2019-04-11T19:01:51.925Z,7.80
2019-04-11T19:04:19.066Z,7.27
2019-04-11T19:06:46.370Z,7.20
2019-04-11T19:09:14.973Z,7.83
2019-04-11T19:11:43.861Z,7.60
2019-04-11T19:14:15.750Z,8.13
2019-04-11T19:16:40.683Z,8.20
2019-04-11T19:19:07.697Z,7.50
2019-04-11T19:21:34.946Z,7.43
2019-04-11T19:24:02.221Z,7.33
2019-04-11T19:26:29.687Z,7.40
2019-04-11T19:28:56.949Z,7.37
2019-04-11T19:31:27.378Z,7.47
2019-04-11T19:33:53.994Z,6.87
2019-04-11T19:36:21.235Z,7.00
2019-04-11T19:38:48.454Z,7.50
2019-04-11T19:41:17.967Z,5.80
2019-04-11T19:43:48.685Z,6.77
2019-04-11T19:46:13.983Z,6.00
2019-04-11T19:48:41.311Z,6.00
2019-04-11T19:51:10.844Z,6.03
2019-04-11T19:53:37.706Z,7.10
2019-04-11T19:56:12.542Z,6.20
2019-04-11T19:58:39.777Z,6.50
2019-04-11T20:01:06.907Z,7.00
2019-04-11T20:03:34.024Z,6.83
2019-04-11T20:06:01.423Z,6.57
2019-04-11T20:08:29.887Z,7.27
2019-04-11T20:11:01.042Z,6.80
2019-04-11T20:13:25.804Z,7.30
2019-04-11T20:15:53.262Z,6.93
2019-04-11T20:18:22.599Z,7.67
2019-04-11T20:20:52.067Z,6.57
2019-04-11T20:23:18.550Z,6.97
2019-04-11T20:25:49.002Z,6.60
2019-04-11T20:28:14.578Z,7.17
2019-04-11T20:30:42.422Z,6.93
2019-04-11T20:33:09.522Z,5.87
2019-04-11T20:35:39.824Z,6.27
2019-04-11T20:38:06.717Z,5.60
2019-04-11T20:40:33.690Z,6.50
2019-04-11T20:43:00.698Z,6.17
2019-04-11T20:45:29.654Z,5.83
2019-04-11T20:47:59.805Z,6.53
2019-04-11T20:50:26.130Z,6.40
2019-04-11T20:52:53.242Z,5.90
2019-04-11T20:55:20.326Z,5.60
2019-04-11T20:57:47.342Z,6.17
2019-04-11T21:00:14.795Z,5.33
2019-04-11T21:02:42.174Z,5.53
2019-04-11T21:05:09.416Z,6.17
2019-04-11T21:07:39.015Z,6.23
2019-04-11T21:10:05.751Z,5.60
2019-04-11T21:12:37.046Z,5.50
2019-04-11T21:15:01.925Z,5.80
2019-04-11T21:17:29.460Z,6.00
2019-04-11T21:19:56.989Z,6.10
2019-04-11T21:22:24.840Z,6.03
2019-04-11T21:24:53.106Z,5.43
2019-04-11T21:27:20.336Z,5.77
2019-04-11T21:29:47.423Z,6.03
2019-04-11T21:32:14.579Z,6.10
2019-04-11T21:34:41.722Z,6.30
2019-04-11T21:37:08.996Z,5.87
2019-04-11T21:39:36.230Z,5.80
2019-04-11T21:42:05.941Z,5.73
2019-04-11T21:44:35.839Z,5.73
2019-04-11T21:47:01.738Z,5.60
2019-04-11T21:49:28.935Z,5.73
2019-04-11T21:51:55.963Z,5.77
2019-04-11T21:54:23.258Z,5.27
2019-04-11T21:56:50.458Z,5.87
2019-04-11T21:59:19.976Z,5.77
2019-04-11T22:01:46.983Z,5.90
2019-04-11T22:04:14.391Z,6.30
2019-04-11T22:06:41.564Z,6.23
2019-04-11T22:09:08.822Z,5.73
2019-04-11T22:11:38.427Z,5.67
2019-04-11T22:14:06.206Z,6.50
2019-04-11T22:16:33.446Z,7.13
2019-04-11T22:19:00.720Z,7.27
2019-04-11T22:21:27.939Z,6.50
2019-04-11T22:23:55.105Z,6.60
2019-04-11T22:26:22.162Z,7.37
2019-04-11T22:28:49.374Z,6.13
2019-04-11T22:31:16.610Z,6.57
2019-04-11T22:33:57.872Z,6.33
2019-04-11T22:36:27.776Z,6.27
2019-04-11T22:38:55.026Z,6.10
2019-04-11T22:41:22.186Z,7.07
2019-04-11T22:43:49.454Z,6.33
2019-04-11T22:46:20.850Z,6.03
2019-04-11T22:48:45.795Z,5.60
2019-04-11T22:51:12.979Z,6.20
2019-04-11T22:53:40.795Z,6.00
2019-04-11T22:56:11.757Z,6.50
2019-04-11T22:58:38.671Z,5.90
2019-04-11T23:01:06.330Z,6.17
2019-04-11T23:03:46.835Z,5.53
2019-04-11T23:06:12.314Z,6.20
2019-04-11T23:08:39.358Z,6.27
2019-04-11T23:11:06.628Z,5.77
2019-04-11T23:13:33.826Z,5.53
2019-04-11T23:16:00.820Z,6.10
2019-04-11T23:18:27.978Z,6.13
2019-04-11T23:20:56.041Z,5.67
2019-04-11T23:23:23.550Z,5.90
2019-04-11T23:25:50.823Z,5.57
2019-04-11T23:28:17.737Z,5.80
2019-04-11T23:30:49.567Z,5.57
2019-04-11T23:33:13.682Z,6.00
2019-04-11T23:35:41.014Z,6.37
2019-04-11T23:38:07.997Z,6.13
2019-04-11T23:40:34.903Z,5.90
2019-04-11T23:43:01.778Z,6.23
2019-04-11T23:45:28.961Z,5.87
2019-04-11T23:47:55.845Z,5.90
2019-04-11T23:50:25.219Z,6.20
2019-04-11T23:52:52.361Z,5.97
2019-04-11T23:55:19.938Z,5.80
2019-04-11T23:57:46.813Z,5.70
